sensor_id;sensor_type;location;lat;lon;timestamp;pressure;altitude;pressure_sealevel;temperature;humidity
8280;BME280;8335;42.646;23.380;2023-03-25T00:00:20;144041.69;;;9.93;81.32
8280;BME280;8335;42.646;23.380;2023-03-25T00:02:50;144026.78;;;9.87;81.73
8280;BME280;8335;42.646;23.380;2023-03-25T00:05:20;144052.84;;;9.98;81.30
8280;BME280;8335;42.646;23.380;2023-03-25T00:07:49;144028.00;;;9.88;81.42
8280;BME280;8335;42.646;23.380;2023-03-25T00:10:17;144047.88;;;9.96;81.49
8280;BME280;8335;42.646;23.380;2023-03-25T00:12:45;144061.56;;;10.02;81.24
8280;BME280;8335;42.646;23.380;2023-03-25T00:15:12;144062.78;;;10.02;81.12
8280;BME280;8335;42.646;23.380;2023-03-25T00:17:40;144057.84;;;10.00;81.28
8280;BME280;8335;42.646;23.380;2023-03-25T00:20:09;144050.34;;;9.97;81.64
8280;BME280;8335;42.646;23.380;2023-03-25T00:22:36;144046.63;;;9.96;81.63
8280;BME280;8335;42.646;23.380;2023-03-25T00:25:06;144040.44;;;9.93;81.72
8280;BME280;8335;42.646;23.380;2023-03-25T00:27:34;144020.53;;;9.85;81.80
8280;BME280;8335;42.646;23.380;2023-03-25T00:30:03;144016.81;;;9.83;82.20
8280;BME280;8335;42.646;23.380;2023-03-25T00:32:29;144005.66;;;9.79;82.39
8280;BME280;8335;42.646;23.380;2023-03-25T00:34:56;144004.38;;;9.78;82.37
8280;BME280;8335;42.646;23.380;2023-03-25T00:37:24;144003.13;;;9.78;82.33
8280;BME280;8335;42.646;23.380;2023-03-25T00:39:51;144001.91;;;9.77;82.49
8280;BME280;8335;42.646;23.380;2023-03-25T00:42:18;144000.66;;;9.77;82.42
8280;BME280;8335;42.646;23.380;2023-03-25T00:44:50;143985.75;;;9.71;82.81
8280;BME280;8335;42.646;23.380;2023-03-25T00:47:18;143972.13;;;9.65;82.87
8280;BME280;8335;42.646;23.380;2023-03-25T00:49:46;143953.50;;;9.57;83.46
8280;BME280;8335;42.646;23.380;2023-03-25T00:52:13;143932.34;;;9.49;83.38
8280;BME280;8335;42.646;23.380;2023-03-25T00:54:41;143918.72;;;9.43;83.83
8280;BME280;8335;42.646;23.380;2023-03-25T00:57:08;143929.84;;;9.48;84.27
8280;BME280;8335;42.646;23.380;2023-03-25T00:59:35;143924.91;;;9.46;84.12
8280;BME280;8335;42.646;23.380;2023-03-25T01:02:01;143933.56;;;9.49;82.92
8280;BME280;8335;42.646;23.380;2023-03-25T01:04:32;143924.91;;;9.46;82.12
8280;BME280;8335;42.646;23.380;2023-03-25T01:06:59;143921.19;;;9.44;82.44
8280;BME280;8335;42.646;23.380;2023-03-25T01:09:27;143911.22;;;9.40;82.20
8280;BME280;8335;42.646;23.380;2023-03-25T01:11:54;143905.03;;;9.37;82.36
8280;BME280;8335;42.646;23.380;2023-03-25T01:14:22;143883.94;;;9.29;82.60
8280;BME280;8335;42.646;23.380;2023-03-25T01:16:52;143865.25;;;9.21;82.77
8280;BME280;8335;42.646;23.380;2023-03-25T01:19:19;143876.47;;;9.26;82.72
8280;BME280;8335;42.646;23.380;2023-03-25T01:21:47;143864.03;;;9.21;83.35
8280;BME280;8335;42.646;23.380;2023-03-25T01:24:14;143852.88;;;9.16;83.49
8280;BME280;8335;42.646;23.380;2023-03-25T01:26:41;143850.41;;;9.15;83.51
8280;BME280;8335;42.646;23.380;2023-03-25T01:29:10;143844.16;;;9.13;83.38
8280;BME280;8335;42.646;23.380;2023-03-25T01:31:37;143845.41;;;9.13;82.96
8280;BME280;8335;42.646;23.380;2023-03-25T01:34:04;143839.22;;;9.10;82.84
8280;BME280;8335;42.646;23.380;2023-03-25T01:36:31;143846.66;;;9.14;82.71
8280;BME280;8335;42.646;23.380;2023-03-25T01:39:03;143839.22;;;9.10;82.04
8280;BME280;8335;42.646;23.380;2023-03-25T01:41:31;143837.97;;;9.10;82.09
8280;BME280;8335;42.646;23.380;2023-03-25T01:44:04;143815.63;;;9.01;82.20
8280;BME280;8335;42.646;23.380;2023-03-25T01:46:31;143826.78;;;9.05;82.07
8280;BME280;8335;42.646;23.380;2023-03-25T01:48:59;143814.41;;;9.00;82.39
8280;BME280;8335;42.646;23.380;2023-03-25T01:51:30;143795.75;;;8.93;82.55
8280;BME280;8335;42.646;23.380;2023-03-25T01:53:59;143790.78;;;8.91;82.75
8280;BME280;8335;42.646;23.380;2023-03-25T01:56:30;143774.63;;;8.84;82.87
8280;BME280;8335;42.646;23.380;2023-03-25T01:59:00;143764.75;;;8.80;82.65
8280;BME280;8335;42.646;23.380;2023-03-25T02:01:28;143769.69;;;8.82;82.91
8280;BME280;8335;42.646;23.380;2023-03-25T02:03:56;143760.97;;;8.78;83.33
8280;BME280;8335;42.646;23.380;2023-03-25T02:06:29;143758.50;;;8.77;82.99
8280;BME280;8335;42.646;23.380;2023-03-25T02:09:01;143742.38;;;8.71;83.28
8280;BME280;8335;42.646;23.380;2023-03-25T02:11:32;143728.75;;;8.65;84.01
8280;BME280;8335;42.646;23.380;2023-03-25T02:14:03;143722.50;;;8.63;84.52
8280;BME280;8335;42.646;23.380;2023-03-25T02:16:35;143702.66;;;8.54;84.41
8280;BME280;8335;42.646;23.380;2023-03-25T02:19:31;143702.66;;;8.54;84.76
8280;BME280;8335;42.646;23.380;2023-03-25T02:22:33;143707.63;;;8.57;84.46
8280;BME280;8335;42.646;23.380;2023-03-25T02:28:18;143696.47;;;8.52;84.62
8280;BME280;8335;42.646;23.380;2023-03-25T02:31:00;143685.28;;;8.47;84.76
8280;BME280;8335;42.646;23.380;2023-03-25T02:37:10;143695.25;;;8.51;84.89
8280;BME280;8335;42.646;23.380;2023-03-25T02:39:46;143697.72;;;8.52;84.39
8280;BME280;8335;42.646;23.380;2023-03-25T02:42:21;143561.19;;;7.96;84.51
8280;BME280;8335;42.646;23.380;2023-03-25T02:44:54;143681.56;;;8.46;85.22
8280;BME280;8335;42.646;23.380;2023-03-25T02:47:24;143656.72;;;8.36;84.18
8280;BME280;8335;42.646;23.380;2023-03-25T02:49:55;143691.47;;;8.50;83.99
8280;BME280;8335;42.646;23.380;2023-03-25T02:52:26;143650.50;;;8.33;84.28
8280;BME280;8335;42.646;23.380;2023-03-25T02:54:58;143674.09;;;8.43;84.53
8280;BME280;8335;42.646;23.380;2023-03-25T02:57:30;143675.38;;;8.43;84.62
8280;BME280;8335;42.646;23.380;2023-03-25T02:59:58;143680.34;;;8.45;84.95
8280;BME280;8335;42.646;23.380;2023-03-25T03:02:28;143659.25;;;8.37;84.98
8280;BME280;8335;42.646;23.380;2023-03-25T03:04:56;143654.22;;;8.35;85.06
8280;BME280;8335;42.646;23.380;2023-03-25T03:07:25;143631.88;;;8.25;84.85
8280;BME280;8335;42.646;23.380;2023-03-25T03:09:59;143631.88;;;8.25;85.65
8280;BME280;8335;42.646;23.380;2023-03-25T03:12:51;143625.69;;;8.23;85.36
8280;BME280;8335;42.646;23.380;2023-03-25T03:15:31;143624.47;;;8.22;85.44
8280;BME280;8335;42.646;23.380;2023-03-25T03:18:08;143625.69;;;8.23;86.22
8280;BME280;8335;42.646;23.380;2023-03-25T03:20:43;143620.72;;;8.21;85.37
8280;BME280;8335;42.646;23.380;2023-03-25T03:23:21;143626.94;;;8.23;85.73
8280;BME280;8335;42.646;23.380;2023-03-25T03:25:54;143630.66;;;8.25;85.76
8280;BME280;8335;42.646;23.380;2023-03-25T03:28:26;143582.25;;;8.05;85.74
8280;BME280;8335;42.646;23.380;2023-03-25T03:30:59;143605.84;;;8.15;86.35
8280;BME280;8335;42.646;23.380;2023-03-25T03:33:34;143594.66;;;8.10;86.22
8280;BME280;8335;42.646;23.380;2023-03-25T03:36:06;143585.97;;;8.07;86.30
8280;BME280;8335;42.646;23.380;2023-03-25T03:38:39;143577.31;;;8.03;87.09
8280;BME280;8335;42.646;23.380;2023-03-25T03:41:10;143563.66;;;7.97;87.56
8280;BME280;8335;42.646;23.380;2023-03-25T03:43:41;143540.09;;;7.88;87.24
8280;BME280;8335;42.646;23.380;2023-03-25T03:46:14;143531.38;;;7.84;87.81
8280;BME280;8335;42.646;23.380;2023-03-25T03:48:44;143500.44;;;7.71;87.50
8280;BME280;8335;42.646;23.380;2023-03-25T03:51:15;143489.25;;;7.67;88.12
8280;BME280;8335;42.646;23.380;2023-03-25T03:53:49;143497.91;;;7.70;88.16
8280;BME280;8335;42.646;23.380;2023-03-25T03:56:22;143502.91;;;7.72;89.23
8280;BME280;8335;42.646;23.380;2023-03-25T03:58:53;143494.19;;;7.69;89.05
8280;BME280;8335;42.646;23.380;2023-03-25T04:01:26;143496.66;;;7.70;88.43
8280;BME280;8335;42.646;23.380;2023-03-25T04:04:01;143506.59;;;7.74;89.45
8280;BME280;8335;42.646;23.380;2023-03-25T04:06:32;143519.03;;;7.79;89.67
8280;BME280;8335;42.646;23.380;2023-03-25T04:09:07;143531.38;;;7.84;89.57
8280;BME280;8335;42.646;23.380;2023-03-25T04:11:41;143533.88;;;7.85;90.26
8280;BME280;8335;42.646;23.380;2023-03-25T04:14:10;143530.16;;;7.84;90.70
8280;BME280;8335;42.646;23.380;2023-03-25T04:16:38;143521.50;;;7.80;89.88
8280;BME280;8335;42.646;23.380;2023-03-25T04:19:05;143511.56;;;7.76;90.67
8280;BME280;8335;42.646;23.380;2023-03-25T04:21:33;143505.38;;;7.73;91.02
8280;BME280;8335;42.646;23.380;2023-03-25T04:24:00;143490.47;;;7.67;90.59
8280;BME280;8335;42.646;23.380;2023-03-25T04:26:27;143488.00;;;7.66;90.72
8280;BME280;8335;42.646;23.380;2023-03-25T04:28:59;143501.66;;;7.72;92.37
8280;BME280;8335;42.646;23.380;2023-03-25T04:31:28;143528.91;;;7.83;92.28
8280;BME280;8335;42.646;23.380;2023-03-25T04:33:56;143548.75;;;7.91;91.23
8280;BME280;8335;42.646;23.380;2023-03-25T04:36:27;143568.59;;;7.99;91.70
8280;BME280;8335;42.646;23.380;2023-03-25T04:38:58;143553.75;;;7.93;91.46
8280;BME280;8335;42.646;23.380;2023-03-25T04:41:25;143589.72;;;8.08;90.28
8280;BME280;8335;42.646;23.380;2023-03-25T04:43:52;143583.50;;;8.06;90.01
8280;BME280;8335;42.646;23.380;2023-03-25T04:46:21;143612.03;;;8.17;91.25
8280;BME280;8335;42.646;23.380;2023-03-25T04:48:47;143748.59;;;8.73;91.38
8280;BME280;8335;42.646;23.380;2023-03-25T04:51:15;143950.97;;;9.56;86.18
8280;BME280;8335;42.646;23.380;2023-03-25T04:53:41;144193.31;;;10.56;80.07
8280;BME280;8335;42.646;23.380;2023-03-25T04:56:12;144429.63;;;11.52;74.50
8280;BME280;8335;42.646;23.380;2023-03-25T04:58:40;144692.28;;;12.60;69.06
8280;BME280;8335;42.646;23.380;2023-03-25T05:01:10;144907.78;;;13.48;64.38
8280;BME280;8335;42.646;23.380;2023-03-25T05:03:42;145078.53;;;14.18;60.31
8280;BME280;8335;42.646;23.380;2023-03-25T05:06:08;145154.63;;;14.49;58.27
8280;BME280;8335;42.646;23.380;2023-03-25T05:08:35;145094.75;;;14.24;58.20
8280;BME280;8335;42.646;23.380;2023-03-25T05:11:02;144972.59;;;13.74;59.98
8280;BME280;8335;42.646;23.380;2023-03-25T05:13:29;144851.72;;;13.25;61.27
8280;BME280;8335;42.646;23.380;2023-03-25T05:15:56;144740.84;;;12.80;63.23
8280;BME280;8335;42.646;23.380;2023-03-25T05:18:22;144646.19;;;12.41;64.54
8280;BME280;8335;42.646;23.380;2023-03-25T05:20:51;144566.56;;;12.08;66.41
8280;BME280;8335;42.646;23.380;2023-03-25T05:23:18;144506.78;;;11.84;67.59
8280;BME280;8335;42.646;23.380;2023-03-25T05:25:48;144439.53;;;11.56;68.95
8280;BME280;8335;42.646;23.380;2023-03-25T05:28:15;144403.47;;;11.42;69.72
8280;BME280;8335;42.646;23.380;2023-03-25T05:30:44;144362.44;;;11.25;70.85
8280;BME280;8335;42.646;23.380;2023-03-25T05:33:13;144364.91;;;11.26;71.19
8280;BME280;8335;42.646;23.380;2023-03-25T05:35:41;144343.78;;;11.17;71.44
8280;BME280;8335;42.646;23.380;2023-03-25T05:38:10;144343.78;;;11.17;72.21
8280;BME280;8335;42.646;23.380;2023-03-25T05:40:38;144305.25;;;11.01;72.33
8280;BME280;8335;42.646;23.380;2023-03-25T05:43:06;144342.53;;;11.17;72.66
8280;BME280;8335;42.646;23.380;2023-03-25T05:45:33;144342.53;;;11.17;72.48
8280;BME280;8335;42.646;23.380;2023-03-25T05:48:00;144342.53;;;11.17;72.51
8280;BME280;8335;42.646;23.380;2023-03-25T05:50:27;144312.69;;;11.05;73.18
8280;BME280;8335;42.646;23.380;2023-03-25T05:52:54;144342.53;;;11.17;73.11
8280;BME280;8335;42.646;23.380;2023-03-25T05:55:23;144338.81;;;11.15;73.03
8280;BME280;8335;42.646;23.380;2023-03-25T05:57:50;144366.16;;;11.26;73.11
8280;BME280;8335;42.646;23.380;2023-03-25T06:00:17;144357.47;;;11.23;72.31
8280;BME280;8335;42.646;23.380;2023-03-25T06:02:45;144402.22;;;11.41;72.36
8280;BME280;8335;42.646;23.380;2023-03-25T06:05:14;144423.38;;;11.50;71.89
8280;BME280;8335;42.646;23.380;2023-03-25T06:07:42;144481.88;;;11.74;72.26
8280;BME280;8335;42.646;23.380;2023-03-25T06:10:10;144722.19;;;12.72;69.44
8280;BME280;8335;42.646;23.380;2023-03-25T06:12:38;145122.16;;;14.36;62.62
8280;BME280;8335;42.646;23.380;2023-03-25T06:15:06;145555.22;;;16.12;55.57
8280;BME280;8335;42.646;23.380;2023-03-25T06:17:34;145982.63;;;17.86;49.44
8280;BME280;8335;42.646;23.380;2023-03-25T06:20:04;146369.19;;;19.44;44.72
8280;BME280;8335;42.646;23.380;2023-03-25T06:22:36;146733.66;;;20.92;41.14
8280;BME280;8335;42.646;23.380;2023-03-25T06:25:04;146946.75;;;21.79;39.38
8280;BME280;8335;42.646;23.380;2023-03-25T06:27:30;147084.75;;;22.35;37.37
8280;BME280;8335;42.646;23.380;2023-03-25T06:30:00;147286.81;;;23.17;36.68
8280;BME280;8335;42.646;23.380;2023-03-25T06:32:27;147521.56;;;24.12;34.00
8280;BME280;8335;42.646;23.380;2023-03-25T06:34:55;147820.66;;;25.33;32.57
8280;BME280;8335;42.646;23.380;2023-03-25T06:37:21;148083.50;;;26.40;31.32
8280;BME280;8335;42.646;23.380;2023-03-25T06:39:50;148241.97;;;27.04;29.78
8280;BME280;8335;42.646;23.380;2023-03-25T06:42:21;148422.03;;;27.77;28.55
8280;BME280;8335;42.646;23.380;2023-03-25T06:44:48;148628.56;;;28.60;27.51
8280;BME280;8335;42.646;23.380;2023-03-25T06:47:16;148786.06;;;29.24;26.26
8280;BME280;8335;42.646;23.380;2023-03-25T06:49:43;148870.53;;;29.58;25.48
8280;BME280;8335;42.646;23.380;2023-03-25T06:52:10;148943.63;;;29.87;24.95
8280;BME280;8335;42.646;23.380;2023-03-25T06:54:37;149053.34;;;30.32;24.54
8280;BME280;8335;42.646;23.380;2023-03-25T06:57:04;149117.66;;;30.58;24.60
8280;BME280;8335;42.646;23.380;2023-03-25T06:59:31;149021.81;;;30.19;24.69
8280;BME280;8335;42.646;23.380;2023-03-25T07:01:58;148844.00;;;29.47;25.62
8280;BME280;8335;42.646;23.380;2023-03-25T07:04:26;148767.19;;;29.16;26.10
8280;BME280;8335;42.646;23.380;2023-03-25T07:06:53;148757.06;;;29.12;26.55
8280;BME280;8335;42.646;23.380;2023-03-25T07:09:20;148775.97;;;29.20;26.18
8280;BME280;8335;42.646;23.380;2023-03-25T07:11:47;148642.44;;;28.66;26.84
8280;BME280;8335;42.646;23.380;2023-03-25T07:14:13;148619.72;;;28.57;27.00
8280;BME280;8335;42.646;23.380;2023-03-25T07:16:40;148593.31;;;28.46;27.10
8280;BME280;8335;42.646;23.380;2023-03-25T07:19:07;148569.41;;;28.36;27.68
8280;BME280;8335;42.646;23.380;2023-03-25T07:21:35;148495.03;;;28.06;27.78
8280;BME280;8335;42.646;23.380;2023-03-25T07:24:02;148484.97;;;28.02;27.77
8280;BME280;8335;42.646;23.380;2023-03-25T07:26:29;148433.38;;;27.81;27.87
8280;BME280;8335;42.646;23.380;2023-03-25T07:28:56;148453.50;;;27.89;28.05
8280;BME280;8335;42.646;23.380;2023-03-25T07:31:22;148483.72;;;28.02;27.95
8280;BME280;8335;42.646;23.380;2023-03-25T07:33:49;148419.50;;;27.76;27.91
8280;BME280;8335;42.646;23.380;2023-03-25T07:36:17;148477.41;;;27.99;27.49
8280;BME280;8335;42.646;23.380;2023-03-25T07:38:47;148576.94;;;28.39;27.29
8280;BME280;8335;42.646;23.380;2023-03-25T07:41:14;148623.53;;;28.58;26.77
8280;BME280;8335;42.646;23.380;2023-03-25T07:43:41;148709.19;;;28.93;26.72
8280;BME280;8335;42.646;23.380;2023-03-25T07:46:07;148788.56;;;29.25;26.21
8280;BME280;8335;42.646;23.380;2023-03-25T07:48:34;148705.41;;;28.91;26.05
8280;BME280;8335;42.646;23.380;2023-03-25T07:51:02;148624.78;;;28.59;26.54
8280;BME280;8335;42.646;23.380;2023-03-25T07:53:29;148668.84;;;28.76;26.80
8280;BME280;8335;42.646;23.380;2023-03-25T07:55:57;148694.06;;;28.87;27.06
8280;BME280;8335;42.646;23.380;2023-03-25T07:58:24;148707.94;;;28.92;26.19
8280;BME280;8335;42.646;23.380;2023-03-25T08:00:51;148603.34;;;28.50;26.78
8280;BME280;8335;42.646;23.380;2023-03-25T08:03:17;148626.06;;;28.59;26.84
8280;BME280;8335;42.646;23.380;2023-03-25T08:05:46;148714.25;;;28.95;26.73
8280;BME280;8335;42.646;23.380;2023-03-25T08:08:13;148682.72;;;28.82;26.65
8280;BME280;8335;42.646;23.380;2023-03-25T08:10:41;148673.88;;;28.78;26.66
8280;BME280;8335;42.646;23.380;2023-03-25T08:13:10;148442.16;;;27.85;27.55
8280;BME280;8335;42.646;23.380;2023-03-25T08:15:37;148364.09;;;27.53;28.21
8280;BME280;8335;42.646;23.380;2023-03-25T08:18:04;148459.78;;;27.92;27.81
8280;BME280;8335;42.646;23.380;2023-03-25T08:20:31;148564.31;;;28.34;27.24
8280;BME280;8335;42.646;23.380;2023-03-25T08:22:59;148610.94;;;28.53;27.15
8280;BME280;8335;42.646;23.380;2023-03-25T08:25:27;148612.19;;;28.54;27.00
8280;BME280;8335;42.646;23.380;2023-03-25T08:27:54;148721.81;;;28.98;26.51
8280;BME280;8335;42.646;23.380;2023-03-25T08:30:22;148724.31;;;28.99;26.53
8280;BME280;8335;42.646;23.380;2023-03-25T08:32:49;148544.13;;;28.26;27.19
8280;BME280;8335;42.646;23.380;2023-03-25T08:35:19;148443.41;;;27.85;27.83
8280;BME280;8335;42.646;23.380;2023-03-25T08:37:46;148490.00;;;28.04;27.72
8280;BME280;8335;42.646;23.380;2023-03-25T08:40:13;148540.38;;;28.24;27.29
8280;BME280;8335;42.646;23.380;2023-03-25T08:42:42;148568.09;;;28.36;27.37
8280;BME280;8335;42.646;23.380;2023-03-25T08:45:10;148613.44;;;28.54;27.17
8280;BME280;8335;42.646;23.380;2023-03-25T08:47:38;148673.88;;;28.78;26.98
8280;BME280;8335;42.646;23.380;2023-03-25T08:50:07;148764.66;;;29.15;27.03
8280;BME280;8335;42.646;23.380;2023-03-25T08:52:34;148719.28;;;28.97;26.28
8280;BME280;8335;42.646;23.380;2023-03-25T08:55:01;148770.94;;;29.18;26.31
8280;BME280;8335;42.646;23.380;2023-03-25T08:57:28;148728.09;;;29.00;26.24
8280;BME280;8335;42.646;23.380;2023-03-25T08:59:54;148692.75;;;28.86;26.37
8280;BME280;8335;42.646;23.380;2023-03-25T09:02:21;148652.47;;;28.70;26.56
8280;BME280;8335;42.646;23.380;2023-03-25T09:04:49;148558.03;;;28.32;26.92
8280;BME280;8335;42.646;23.380;2023-03-25T09:07:16;148467.34;;;27.95;27.27
8280;BME280;8335;42.646;23.380;2023-03-25T09:09:44;148411.97;;;27.73;27.89
8280;BME280;8335;42.646;23.380;2023-03-25T09:12:11;148430.84;;;27.80;27.78
8280;BME280;8335;42.646;23.380;2023-03-25T09:14:41;148381.72;;;27.60;28.50
8280;BME280;8335;42.646;23.380;2023-03-25T09:17:08;148384.22;;;27.61;28.52
8280;BME280;8335;42.646;23.380;2023-03-25T09:19:35;148371.63;;;27.56;28.33
8280;BME280;8335;42.646;23.380;2023-03-25T09:22:04;148336.38;;;27.42;28.89
8280;BME280;8335;42.646;23.380;2023-03-25T09:24:31;148345.22;;;27.46;28.51
8280;BME280;8335;42.646;23.380;2023-03-25T09:26:58;148429.59;;;27.80;28.26
8280;BME280;8335;42.646;23.380;2023-03-25T09:29:25;148522.75;;;28.17;27.74
8280;BME280;8335;42.646;23.380;2023-03-25T09:31:52;148469.88;;;27.96;27.59
8280;BME280;8335;42.646;23.380;2023-03-25T09:34:19;148385.47;;;27.62;28.69
8280;BME280;8335;42.646;23.380;2023-03-25T09:36:46;148271.00;;;27.15;28.61
8280;BME280;8335;42.646;23.380;2023-03-25T09:39:14;148181.63;;;26.79;28.91
8280;BME280;8335;42.646;23.380;2023-03-25T09:41:53;148235.72;;;27.01;29.20
8280;BME280;8335;42.646;23.380;2023-03-25T09:44:26;148282.28;;;27.20;29.55
8280;BME280;8335;42.646;23.380;2023-03-25T09:46:55;148252.13;;;27.08;30.27
8280;BME280;8335;42.646;23.380;2023-03-25T09:49:33;148313.75;;;27.33;29.73
8280;BME280;8335;42.646;23.380;2023-03-25T09:52:03;148309.97;;;27.31;29.10
8280;BME280;8335;42.646;23.380;2023-03-25T09:54:36;148346.47;;;27.46;29.31
8280;BME280;8335;42.646;23.380;2023-03-25T09:57:07;148411.97;;;27.73;29.61
8280;BME280;8335;42.646;23.380;2023-03-25T09:59:41;148430.84;;;27.80;29.61
8280;BME280;8335;42.646;23.380;2023-03-25T10:02:22;148299.91;;;27.27;29.23
8280;BME280;8335;42.646;23.380;2023-03-25T10:05:03;148255.88;;;27.09;29.68
8280;BME280;8335;42.646;23.380;2023-03-25T10:07:43;148026.88;;;26.17;30.34
8280;BME280;8335;42.646;23.380;2023-03-25T10:10:21;147746.47;;;25.03;31.61
8280;BME280;8335;42.646;23.380;2023-03-25T10:12:54;147689.94;;;24.80;32.72
8280;BME280;8335;42.646;23.380;2023-03-25T10:15:30;147618.34;;;24.51;32.87
8280;BME280;8335;42.646;23.380;2023-03-25T10:18:11;147527.84;;;24.14;33.84
8280;BME280;8335;42.646;23.380;2023-03-25T10:20:47;147456.28;;;23.85;33.73
8280;BME280;8335;42.646;23.380;2023-03-25T10:23:23;147447.50;;;23.82;33.79
8280;BME280;8335;42.646;23.380;2023-03-25T10:26:00;147486.41;;;23.98;33.54
8280;BME280;8335;42.646;23.380;2023-03-25T10:28:33;147526.59;;;24.14;33.22
8280;BME280;8335;42.646;23.380;2023-03-25T10:31:05;147554.22;;;24.25;33.05
8280;BME280;8335;42.646;23.380;2023-03-25T10:33:37;147470.09;;;23.91;32.34
8280;BME280;8335;42.646;23.380;2023-03-25T10:36:09;147536.66;;;24.18;32.71
8280;BME280;8335;42.646;23.380;2023-03-25T10:38:40;147584.44;;;24.37;31.44
8280;BME280;8335;42.646;23.380;2023-03-25T10:41:17;147576.88;;;24.34;32.64
8280;BME280;8335;42.646;23.380;2023-03-25T10:43:45;147586.94;;;24.38;31.43
8280;BME280;8335;42.646;23.380;2023-03-25T10:46:18;147607.03;;;24.47;31.33
8280;BME280;8335;42.646;23.380;2023-03-25T10:48:48;147769.13;;;25.12;30.09
8280;BME280;8335;42.646;23.380;2023-03-25T10:51:17;148016.78;;;26.13;29.43
8280;BME280;8335;42.646;23.380;2023-03-25T10:53:47;148072.09;;;26.35;28.60
8280;BME280;8335;42.646;23.380;2023-03-25T10:56:20;148220.59;;;26.95;28.25
8280;BME280;8335;42.646;23.380;2023-03-25T10:58:50;148313.75;;;27.33;27.47
8280;BME280;8335;42.646;23.380;2023-03-25T11:01:18;148283.53;;;27.21;26.76
8280;BME280;8335;42.646;23.380;2023-03-25T11:03:49;148142.59;;;26.64;27.45
8280;BME280;8335;42.646;23.380;2023-03-25T11:06:22;147889.78;;;25.61;28.28
8280;BME280;8335;42.646;23.380;2023-03-25T11:09:09;147860.84;;;25.49;29.15
8280;BME280;8335;42.646;23.380;2023-03-25T11:11:40;147826.91;;;25.36;29.75
8280;BME280;8335;42.646;23.380;2023-03-25T11:14:08;147837.00;;;25.40;29.13
8280;BME280;8335;42.646;23.380;2023-03-25T11:16:40;147844.50;;;25.43;29.58
8280;BME280;8335;42.646;23.380;2023-03-25T11:19:15;147887.28;;;25.60;29.11
8280;BME280;8335;42.646;23.380;2023-03-25T11:21:45;147791.72;;;25.21;29.18
8280;BME280;8335;42.646;23.380;2023-03-25T11:24:15;147735.16;;;24.98;30.72
8280;BME280;8335;42.646;23.380;2023-03-25T11:26:45;147529.13;;;24.15;30.66
8280;BME280;8335;42.646;23.380;2023-03-25T11:29:18;147603.28;;;24.45;30.92
8280;BME280;8335;42.646;23.380;2023-03-25T11:31:55;147617.09;;;24.51;31.22
8280;BME280;8335;42.646;23.380;2023-03-25T11:34:22;147630.88;;;24.56;31.13
8280;BME280;8335;42.646;23.380;2023-03-25T11:36:52;147561.75;;;24.28;31.54
8280;BME280;8335;42.646;23.380;2023-03-25T11:39:25;147433.69;;;23.76;32.58
8280;BME280;8335;42.646;23.380;2023-03-25T11:41:56;147368.34;;;23.50;33.49
8280;BME280;8335;42.646;23.380;2023-03-25T11:44:25;147344.53;;;23.40;34.38
8280;BME280;8335;42.646;23.380;2023-03-25T11:46:55;147396.03;;;23.61;33.62
8280;BME280;8335;42.646;23.380;2023-03-25T11:49:23;147353.31;;;23.44;33.92
8280;BME280;8335;42.646;23.380;2023-03-25T11:51:56;147505.25;;;24.05;33.49
8280;BME280;8335;42.646;23.380;2023-03-25T11:54:26;147537.91;;;24.19;32.96
8280;BME280;8335;42.646;23.380;2023-03-25T11:56:54;147576.88;;;24.34;31.67
8280;BME280;8335;42.646;23.380;2023-03-25T11:59:24;147580.63;;;24.36;31.98
8280;BME280;8335;42.646;23.380;2023-03-25T12:01:59;147583.19;;;24.37;31.90
8280;BME280;8335;42.646;23.380;2023-03-25T12:04:29;147617.09;;;24.51;32.92
8280;BME280;8335;42.646;23.380;2023-03-25T12:06:58;147604.53;;;24.46;31.77
8280;BME280;8335;42.646;23.380;2023-03-25T12:09:27;147595.69;;;24.42;31.60
8280;BME280;8335;42.646;23.380;2023-03-25T12:12:06;147524.06;;;24.13;31.63
8280;BME280;8335;42.646;23.380;2023-03-25T12:14:45;147362.09;;;23.47;32.22
8280;BME280;8335;42.646;23.380;2023-03-25T12:17:24;147324.44;;;23.32;32.46
8280;BME280;8335;42.646;23.380;2023-03-25T12:20:01;147331.94;;;23.35;32.40
8280;BME280;8335;42.646;23.380;2023-03-25T12:22:47;147308.13;;;23.25;33.06
8280;BME280;8335;42.646;23.380;2023-03-25T12:25:23;147306.88;;;23.25;33.20
8280;BME280;8335;42.646;23.380;2023-03-25T12:28:02;147333.19;;;23.35;32.36
8280;BME280;8335;42.646;23.380;2023-03-25T12:30:43;147265.47;;;23.08;32.70
8280;BME280;8335;42.646;23.380;2023-03-25T12:33:23;147242.84;;;22.99;32.19
8280;BME280;8335;42.646;23.380;2023-03-25T12:36:05;147195.16;;;22.79;32.41
8280;BME280;8335;42.646;23.380;2023-03-25T12:38:40;147109.84;;;22.45;32.99
8280;BME280;8335;42.646;23.380;2023-03-25T12:41:19;147126.16;;;22.51;33.46
8280;BME280;8335;42.646;23.380;2023-03-25T12:44:01;147104.81;;;22.43;33.35
8280;BME280;8335;42.646;23.380;2023-03-25T12:46:41;147108.59;;;22.44;33.21
8280;BME280;8335;42.646;23.380;2023-03-25T12:49:24;147144.97;;;22.59;33.19
8280;BME280;8335;42.646;23.380;2023-03-25T12:52:01;147144.97;;;22.59;32.95
8280;BME280;8335;42.646;23.380;2023-03-25T12:54:43;147109.84;;;22.45;33.05
8280;BME280;8335;42.646;23.380;2023-03-25T12:57:19;147111.13;;;22.45;32.71
8280;BME280;8335;42.646;23.380;2023-03-25T13:00:02;147111.13;;;22.45;33.41
8280;BME280;8335;42.646;23.380;2023-03-25T13:02:55;147101.06;;;22.41;33.23
8280;BME280;8335;42.646;23.380;2023-03-25T13:05:30;147072.25;;;22.30;33.33
8280;BME280;8335;42.646;23.380;2023-03-25T13:08:02;147082.25;;;22.34;33.71
8280;BME280;8335;42.646;23.380;2023-03-25T13:10:33;147027.06;;;22.11;33.50
8280;BME280;8335;42.646;23.380;2023-03-25T13:13:03;147014.47;;;22.06;33.56
8280;BME280;8335;42.646;23.380;2023-03-25T13:15:39;146948.06;;;21.79;34.25
8280;BME280;8335;42.646;23.380;2023-03-25T13:18:10;146985.66;;;21.94;34.02
8280;BME280;8335;42.646;23.380;2023-03-25T13:20:42;146973.13;;;21.89;33.64
8280;BME280;8335;42.646;23.380;2023-03-25T13:23:15;146941.75;;;21.77;34.19
8280;BME280;8335;42.646;23.380;2023-03-25T13:25:49;146927.97;;;21.71;34.20
8280;BME280;8335;42.646;23.380;2023-03-25T13:28:21;146871.56;;;21.48;34.46